Terminal Aerodrome Forecast
Issued by NWS

Home | Current Version | Previous Version | Text Only | Print | Product List | Glossary On
Versions: 1 2 3 4 5 6 7 8 9 10 11 12 13 14 15
000
FTUS44 KSJT 191736
TAFSOA
TAF
KSOA 191736Z 1918/2018 20009KT P6SM SCT015
     FM191900 20008KT P6SM SCT250
     FM201300 18007KT P6SM BKN012=

USA.gov is the U.S. government's official web portal to all federal, state and local government web resources and services.